sensor_id;sensor_type;location;lat;lon;timestamp;pressure;altitude;pressure_sealevel;temperature;humidity
10852;BME280;5479;52.046;6.314;2022-08-25T00:01:44;101569.84;;;22.97;96.61
10852;BME280;5479;52.046;6.314;2022-08-25T00:04:14;101564.03;;;22.92;97.65
10852;BME280;5479;52.046;6.314;2022-08-25T00:06:42;101566.16;;;22.98;97.02
10852;BME280;5479;52.046;6.314;2022-08-25T00:09:13;101569.44;;;22.92;95.36
10852;BME280;5479;52.046;6.314;2022-08-25T00:11:42;101571.06;;;22.85;94.96
10852;BME280;5479;52.046;6.314;2022-08-25T00:14:12;101577.47;;;22.83;94.06
10852;BME280;5479;52.046;6.314;2022-08-25T00:16:42;101565.41;;;22.78;93.30
10852;BME280;5479;52.046;6.314;2022-08-25T00:19:13;101569.25;;;22.75;93.86
10852;BME280;5479;52.046;6.314;2022-08-25T00:21:42;101570.16;;;22.66;91.90
10852;BME280;5479;52.046;6.314;2022-08-25T00:24:11;101565.47;;;22.68;91.67
10852;BME280;5479;52.046;6.314;2022-08-25T00:26:41;101573.28;;;22.62;91.56
10852;BME280;5479;52.046;6.314;2022-08-25T00:29:11;101569.03;;;22.59;89.73
10852;BME280;5479;52.046;6.314;2022-08-25T00:31:39;101574.13;;;22.62;86.76
10852;BME280;5479;52.046;6.314;2022-08-25T00:34:16;101564.06;;;22.64;85.57
10852;BME280;5479;52.046;6.314;2022-08-25T00:36:44;101566.16;;;22.70;84.25
10852;BME280;5479;52.046;6.314;2022-08-25T00:39:12;101570.16;;;22.66;84.33
10852;BME280;5479;52.046;6.314;2022-08-25T00:41:42;101573.56;;;22.68;83.65
10852;BME280;5479;52.046;6.314;2022-08-25T00:44:12;101572.25;;;22.72;82.47
10852;BME280;5479;52.046;6.314;2022-08-25T00:46:42;101576.41;;;22.67;83.50
10852;BME280;5479;52.046;6.314;2022-08-25T00:49:14;101568.47;;;22.65;82.84
10852;BME280;5479;52.046;6.314;2022-08-25T00:51:50;101575.03;;;22.63;82.96
10852;BME280;5479;52.046;6.314;2022-08-25T00:54:23;101583.22;;;22.61;82.30
10852;BME280;5479;52.046;6.314;2022-08-25T00:56:55;101575.00;;;22.53;82.89
10852;BME280;5479;52.046;6.314;2022-08-25T00:59:27;101581.72;;;22.49;83.35
10852;BME280;5479;52.046;6.314;2022-08-25T01:01:56;101585.41;;;22.48;82.83
10852;BME280;5479;52.046;6.314;2022-08-25T01:04:25;101576.16;;;22.51;83.25
10852;BME280;5479;52.046;6.314;2022-08-25T01:06:54;101576.75;;;22.45;83.49
10852;BME280;5479;52.046;6.314;2022-08-25T01:09:23;101572.41;;;22.34;84.12
10852;BME280;5479;52.046;6.314;2022-08-25T01:11:51;101578.81;;;22.33;85.11
10852;BME280;5479;52.046;6.314;2022-08-25T01:14:20;101571.41;;;22.35;83.27
10852;BME280;5479;52.046;6.314;2022-08-25T01:16:50;101575.72;;;22.28;83.50
10852;BME280;5479;52.046;6.314;2022-08-25T01:19:18;101576.25;;;22.32;84.37
10852;BME280;5479;52.046;6.314;2022-08-25T01:21:49;101574.56;;;22.31;82.97
10852;BME280;5479;52.046;6.314;2022-08-25T01:24:24;101577.09;;;22.32;84.47
10852;BME280;5479;52.046;6.314;2022-08-25T01:26:52;101575.38;;;22.31;84.73
10852;BME280;5479;52.046;6.314;2022-08-25T01:29:20;101578.28;;;22.20;83.05
10852;BME280;5479;52.046;6.314;2022-08-25T01:31:54;101568.66;;;22.08;83.91
10852;BME280;5479;52.046;6.314;2022-08-25T01:34:24;101575.31;;;22.13;84.48
10852;BME280;5479;52.046;6.314;2022-08-25T01:36:55;101578.31;;;22.10;82.75
10852;BME280;5479;52.046;6.314;2022-08-25T01:39:24;101577.44;;;22.10;83.05
10852;BME280;5479;52.046;6.314;2022-08-25T01:42:08;101568.09;;;22.04;82.81
10852;BME280;5479;52.046;6.314;2022-08-25T01:44:41;101572.78;;;22.02;82.90
10852;BME280;5479;52.046;6.314;2022-08-25T01:47:11;101573.06;;;21.99;82.89
10852;BME280;5479;52.046;6.314;2022-08-25T01:49:39;101576.91;;;21.97;84.32
10852;BME280;5479;52.046;6.314;2022-08-25T01:52:14;101573.69;;;21.93;85.19
10852;BME280;5479;52.046;6.314;2022-08-25T01:54:43;101575.66;;;21.91;84.65
10852;BME280;5479;52.046;6.314;2022-08-25T01:57:11;101568.94;;;21.86;86.18
10852;BME280;5479;52.046;6.314;2022-08-25T01:59:39;101576.63;;;21.81;87.88
10852;BME280;5479;52.046;6.314;2022-08-25T02:02:07;101576.63;;;21.81;86.96
10852;BME280;5479;52.046;6.314;2022-08-25T02:04:35;101576.63;;;21.81;86.82
10852;BME280;5479;52.046;6.314;2022-08-25T02:07:04;101579.47;;;21.89;85.31
10852;BME280;5479;52.046;6.314;2022-08-25T02:09:34;101576.94;;;21.87;83.66
10852;BME280;5479;52.046;6.314;2022-08-25T02:12:03;101573.22;;;21.79;85.06
10852;BME280;5479;52.046;6.314;2022-08-25T02:14:31;101578.78;;;21.67;85.33
10852;BME280;5479;52.046;6.314;2022-08-25T02:17:02;101580.78;;;21.65;86.96
10852;BME280;5479;52.046;6.314;2022-08-25T02:19:30;101584.59;;;21.73;84.29
10852;BME280;5479;52.046;6.314;2022-08-25T02:21:59;101580.78;;;21.65;84.74
10852;BME280;5479;52.046;6.314;2022-08-25T02:24:27;101582.06;;;21.61;83.43
10852;BME280;5479;52.046;6.314;2022-08-25T02:26:56;101588.69;;;21.67;82.30
10852;BME280;5479;52.046;6.314;2022-08-25T02:29:24;101590.25;;;21.70;81.30
10852;BME280;5479;52.046;6.314;2022-08-25T02:31:52;101585.16;;;21.57;82.93
10852;BME280;5479;52.046;6.314;2022-08-25T02:34:22;101591.72;;;21.64;82.69
10852;BME280;5479;52.046;6.314;2022-08-25T02:36:50;101587.16;;;21.64;82.35
10852;BME280;5479;52.046;6.314;2022-08-25T02:39:18;101584.88;;;21.60;82.18
10852;BME280;5479;52.046;6.314;2022-08-25T02:41:47;101583.03;;;21.60;82.11
10852;BME280;5479;52.046;6.314;2022-08-25T02:44:17;101588.31;;;21.52;81.91
10852;BME280;5479;52.046;6.314;2022-08-25T02:46:45;101580.06;;;21.54;81.92
10852;BME280;5479;52.046;6.314;2022-08-25T02:49:12;101588.31;;;21.52;81.86
10852;BME280;5479;52.046;6.314;2022-08-25T02:51:40;101583.47;;;21.46;82.87
10852;BME280;5479;52.046;6.314;2022-08-25T02:54:08;101590.28;;;21.41;85.14
10852;BME280;5479;52.046;6.314;2022-08-25T02:56:36;101583.19;;;21.30;86.29
10852;BME280;5479;52.046;6.314;2022-08-25T02:59:04;101582.91;;;21.24;87.23
10852;BME280;5479;52.046;6.314;2022-08-25T03:01:33;101579.22;;;21.15;88.52
10852;BME280;5479;52.046;6.314;2022-08-25T03:04:01;101574.09;;;21.12;88.85
10852;BME280;5479;52.046;6.314;2022-08-25T03:06:31;101568.72;;;21.12;89.00
10852;BME280;5479;52.046;6.314;2022-08-25T03:09:00;101565.16;;;21.12;84.88
10852;BME280;5479;52.046;6.314;2022-08-25T03:11:28;101567.72;;;21.13;85.03
10852;BME280;5479;52.046;6.314;2022-08-25T03:13:56;101556.38;;;21.19;83.85
10852;BME280;5479;52.046;6.314;2022-08-25T03:16:24;101560.19;;;21.17;83.60
10852;BME280;5479;52.046;6.314;2022-08-25T03:18:55;101562.03;;;21.16;83.37
10852;BME280;5479;52.046;6.314;2022-08-25T03:21:23;101560.34;;;21.15;83.11
10852;BME280;5479;52.046;6.314;2022-08-25T03:23:51;101559.66;;;21.13;82.93
10852;BME280;5479;52.046;6.314;2022-08-25T03:26:19;101554.97;;;21.15;82.10
10852;BME280;5479;52.046;6.314;2022-08-25T03:29:05;101554.25;;;21.13;82.17
10852;BME280;5479;52.046;6.314;2022-08-25T03:31:33;101550.56;;;21.14;81.71
10852;BME280;5479;52.046;6.314;2022-08-25T03:34:03;101544.19;;;21.15;81.19
10852;BME280;5479;52.046;6.314;2022-08-25T03:36:31;101544.91;;;21.08;82.67
10852;BME280;5479;52.046;6.314;2022-08-25T03:38:59;101541.59;;;21.04;83.08
10852;BME280;5479;52.046;6.314;2022-08-25T03:41:29;101540.88;;;21.02;82.26
10852;BME280;5479;52.046;6.314;2022-08-25T03:43:58;101542.31;;;21.06;81.69
10852;BME280;5479;52.046;6.314;2022-08-25T03:46:29;101538.47;;;20.99;82.44
10852;BME280;5479;52.046;6.314;2022-08-25T03:48:59;101545.97;;;20.95;82.25
10852;BME280;5479;52.046;6.314;2022-08-25T03:51:30;101535.50;;;21.02;81.49
10852;BME280;5479;52.046;6.314;2022-08-25T03:53:59;101538.75;;;21.05;81.11
10852;BME280;5479;52.046;6.314;2022-08-25T03:56:27;101540.75;;;20.94;81.93
10852;BME280;5479;52.046;6.314;2022-08-25T03:58:55;101532.94;;;20.91;82.16
10852;BME280;5479;52.046;6.314;2022-08-25T04:01:23;101529.25;;;20.92;82.04
10852;BME280;5479;52.046;6.314;2022-08-25T04:03:52;101533.22;;;20.88;82.47
10852;BME280;5479;52.046;6.314;2022-08-25T04:06:20;101532.66;;;20.94;82.20
10852;BME280;5479;52.046;6.314;2022-08-25T04:08:50;101520.44;;;20.90;81.65
10852;BME280;5479;52.046;6.314;2022-08-25T04:11:21;101522.75;;;20.94;81.16
10852;BME280;5479;52.046;6.314;2022-08-25T04:13:50;101529.69;;;20.97;80.75
10852;BME280;5479;52.046;6.314;2022-08-25T04:16:20;101518.19;;;20.85;81.54
10852;BME280;5479;52.046;6.314;2022-08-25T04:18:49;101515.66;;;20.84;81.78
10852;BME280;5479;52.046;6.314;2022-08-25T04:21:18;101511.94;;;20.75;81.82
10852;BME280;5479;52.046;6.314;2022-08-25T04:23:48;101505.16;;;20.81;81.44
10852;BME280;5479;52.046;6.314;2022-08-25T04:26:19;101514.50;;;20.77;81.63
10852;BME280;5479;52.046;6.314;2022-08-25T04:28:48;101513.19;;;20.71;82.03
10852;BME280;5479;52.046;6.314;2022-08-25T04:31:17;101515.03;;;20.71;82.50
10852;BME280;5479;52.046;6.314;2022-08-25T04:33:47;101505.97;;;20.72;82.04
10852;BME280;5479;52.046;6.314;2022-08-25T04:36:16;101509.38;;;20.64;82.80
10852;BME280;5479;52.046;6.314;2022-08-25T04:38:45;101511.34;;;20.62;82.90
10852;BME280;5479;52.046;6.314;2022-08-25T04:41:14;101509.38;;;20.64;82.41
10852;BME280;5479;52.046;6.314;2022-08-25T04:43:44;101506.81;;;20.63;82.42
10852;BME280;5479;52.046;6.314;2022-08-25T04:46:14;101515.03;;;20.71;81.55
10852;BME280;5479;52.046;6.314;2022-08-25T04:48:43;101515.94;;;20.81;80.70
10852;BME280;5479;52.046;6.314;2022-08-25T04:51:13;101514.22;;;20.80;80.22
10852;BME280;5479;52.046;6.314;2022-08-25T04:53:41;101514.22;;;20.80;80.43
10852;BME280;5479;52.046;6.314;2022-08-25T04:56:13;101521.84;;;20.75;80.90
10852;BME280;5479;52.046;6.314;2022-08-25T04:58:43;101522.13;;;20.72;81.08
10852;BME280;5479;52.046;6.314;2022-08-25T05:01:15;101511.78;;;20.77;80.15
10852;BME280;5479;52.046;6.314;2022-08-25T05:03:44;101512.38;;;20.80;79.65
10852;BME280;5479;52.046;6.314;2022-08-25T05:06:12;101521.03;;;20.84;80.17
10852;BME280;5479;52.046;6.314;2022-08-25T05:08:41;101512.09;;;20.93;79.26
10852;BME280;5479;52.046;6.314;2022-08-25T05:11:12;101523.00;;;20.82;79.59
10852;BME280;5479;52.046;6.314;2022-08-25T05:13:40;101510.53;;;20.81;79.95
10852;BME280;5479;52.046;6.314;2022-08-25T05:16:10;101522.59;;;20.86;79.19
10852;BME280;5479;52.046;6.314;2022-08-25T05:18:38;101507.28;;;20.87;79.71
10852;BME280;5479;52.046;6.314;2022-08-25T05:21:08;101516.78;;;21.00;78.18
10852;BME280;5479;52.046;6.314;2022-08-25T05:23:37;101516.50;;;21.03;78.23
10852;BME280;5479;52.046;6.314;2022-08-25T05:26:08;101516.97;;;21.09;78.09
10852;BME280;5479;52.046;6.314;2022-08-25T05:28:37;101508.00;;;20.98;78.97
10852;BME280;5479;52.046;6.314;2022-08-25T05:31:07;101508.72;;;20.91;79.49
10852;BME280;5479;52.046;6.314;2022-08-25T05:33:37;101512.25;;;21.01;79.10
10852;BME280;5479;52.046;6.314;2022-08-25T05:36:06;101515.81;;;21.11;78.30
10852;BME280;5479;52.046;6.314;2022-08-25T05:38:36;101514.56;;;21.15;78.70
10852;BME280;5479;52.046;6.314;2022-08-25T05:41:07;101511.16;;;21.13;78.69
10852;BME280;5479;52.046;6.314;2022-08-25T05:43:37;101514.28;;;21.18;78.00
10852;BME280;5479;52.046;6.314;2022-08-25T05:46:06;101508.75;;;21.29;77.86
10852;BME280;5479;52.046;6.314;2022-08-25T05:48:34;101512.69;;;21.35;77.28
10852;BME280;5479;52.046;6.314;2022-08-25T05:51:06;101507.59;;;21.41;76.99
10852;BME280;5479;52.046;6.314;2022-08-25T05:53:36;101512.72;;;21.44;77.08
10852;BME280;5479;52.046;6.314;2022-08-25T05:56:05;101514.53;;;21.44;77.62
10852;BME280;5479;52.046;6.314;2022-08-25T05:58:33;101508.44;;;21.51;76.90
10852;BME280;5479;52.046;6.314;2022-08-25T06:01:02;101517.47;;;21.70;76.02
10852;BME280;5479;52.046;6.314;2022-08-25T06:03:44;101516.66;;;21.59;76.90
10852;BME280;5479;52.046;6.314;2022-08-25T06:06:14;101528.44;;;21.58;78.01
10852;BME280;5479;52.046;6.314;2022-08-25T06:08:42;101518.06;;;21.63;78.37
10852;BME280;5479;52.046;6.314;2022-08-25T06:11:11;101523.59;;;21.91;75.08
10852;BME280;5479;52.046;6.314;2022-08-25T06:13:39;101525.84;;;21.95;75.76
10852;BME280;5479;52.046;6.314;2022-08-25T06:16:07;101532.19;;;22.04;75.26
10852;BME280;5479;52.046;6.314;2022-08-25T06:18:35;101536.56;;;22.05;75.64
10852;BME280;5479;52.046;6.314;2022-08-25T06:21:08;101522.41;;;22.03;75.33
10852;BME280;5479;52.046;6.314;2022-08-25T06:23:39;101531.47;;;22.11;76.25
10852;BME280;5479;52.046;6.314;2022-08-25T06:26:09;101531.78;;;22.36;74.06
10852;BME280;5479;52.046;6.314;2022-08-25T06:28:37;101535.00;;;22.39;73.74
10852;BME280;5479;52.046;6.314;2022-08-25T06:31:05;101527.34;;;22.44;73.97
10852;BME280;5479;52.046;6.314;2022-08-25T06:33:33;101530.16;;;22.52;74.59
10852;BME280;5479;52.046;6.314;2022-08-25T06:36:02;101536.22;;;22.54;73.62
10852;BME280;5479;52.046;6.314;2022-08-25T06:38:30;101536.91;;;22.66;74.56
10852;BME280;5479;52.046;6.314;2022-08-25T06:41:00;101538.66;;;22.85;73.85
10852;BME280;5479;52.046;6.314;2022-08-25T06:43:28;101536.47;;;22.88;74.19
10852;BME280;5479;52.046;6.314;2022-08-25T06:45:56;101524.00;;;23.05;74.86
10852;BME280;5479;52.046;6.314;2022-08-25T06:48:25;101532.81;;;23.24;73.83
10852;BME280;5479;52.046;6.314;2022-08-25T06:50:53;101527.66;;;23.49;70.10
10852;BME280;5479;52.046;6.314;2022-08-25T06:53:21;101522.69;;;23.87;68.30
10852;BME280;5479;52.046;6.314;2022-08-25T06:55:55;101506.75;;;24.86;63.71
10852;BME280;5479;52.046;6.314;2022-08-25T06:58:24;101513.38;;;25.96;58.16
10852;BME280;5479;52.046;6.314;2022-08-25T07:00:53;101519.00;;;26.50;53.67
10852;BME280;5479;52.046;6.314;2022-08-25T07:03:22;101507.75;;;27.60;50.66
10852;BME280;5479;52.046;6.314;2022-08-25T07:05:51;101519.63;;;27.81;48.97
10852;BME280;5479;52.046;6.314;2022-08-25T07:08:19;101522.75;;;28.51;47.63
10852;BME280;5479;52.046;6.314;2022-08-25T07:10:47;101518.28;;;29.15;44.68
10852;BME280;5479;52.046;6.314;2022-08-25T07:13:16;101521.66;;;28.46;46.42
10852;BME280;5479;52.046;6.314;2022-08-25T07:15:45;101516.75;;;28.70;46.13
10852;BME280;5479;52.046;6.314;2022-08-25T07:18:13;101509.88;;;29.59;43.57
10852;BME280;5479;52.046;6.314;2022-08-25T07:20:41;101517.69;;;30.52;41.35
10852;BME280;5479;52.046;6.314;2022-08-25T07:23:09;101511.59;;;29.60;42.91
10852;BME280;5479;52.046;6.314;2022-08-25T07:25:37;101513.72;;;29.37;44.04
10852;BME280;5479;52.046;6.314;2022-08-25T07:28:05;101507.00;;;29.88;42.82
10852;BME280;5479;52.046;6.314;2022-08-25T07:30:32;101504.69;;;29.85;42.81
10852;BME280;5479;52.046;6.314;2022-08-25T07:33:01;101495.50;;;30.81;40.92
10852;BME280;5479;52.046;6.314;2022-08-25T07:35:29;101499.84;;;31.89;38.94
10852;BME280;5479;52.046;6.314;2022-08-25T07:37:58;101501.94;;;30.61;40.84
10852;BME280;5479;52.046;6.314;2022-08-25T07:40:28;101503.72;;;30.88;39.47
10852;BME280;5479;52.046;6.314;2022-08-25T07:43:00;101501.72;;;30.15;41.62
10852;BME280;5479;52.046;6.314;2022-08-25T07:45:30;101498.56;;;29.83;42.90
10852;BME280;5479;52.046;6.314;2022-08-25T07:48:00;101498.50;;;30.39;41.88
10852;BME280;5479;52.046;6.314;2022-08-25T07:50:30;101500.22;;;31.14;40.68
10852;BME280;5479;52.046;6.314;2022-08-25T07:52:58;101503.78;;;31.08;40.09
10852;BME280;5479;52.046;6.314;2022-08-25T07:55:27;101499.78;;;30.43;41.54
10852;BME280;5479;52.046;6.314;2022-08-25T07:57:56;101507.75;;;30.44;41.57
10852;BME280;5479;52.046;6.314;2022-08-25T08:00:26;101497.44;;;30.06;41.90
10852;BME280;5479;52.046;6.314;2022-08-25T08:02:55;101503.31;;;30.84;40.56
10852;BME280;5479;52.046;6.314;2022-08-25T08:05:25;101511.22;;;31.66;39.25
10852;BME280;5479;52.046;6.314;2022-08-25T08:07:54;101509.28;;;31.34;39.04
10852;BME280;5479;52.046;6.314;2022-08-25T08:10:23;101519.59;;;30.58;40.84
10852;BME280;5479;52.046;6.314;2022-08-25T08:12:51;101512.72;;;31.62;38.93
10852;BME280;5479;52.046;6.314;2022-08-25T08:15:19;101500.31;;;33.25;35.83
10852;BME280;5479;52.046;6.314;2022-08-25T08:17:48;101496.50;;;33.58;34.88
10852;BME280;5479;52.046;6.314;2022-08-25T08:20:16;101493.22;;;33.18;36.08
10852;BME280;5479;52.046;6.314;2022-08-25T08:22:45;101488.84;;;34.09;33.67
10852;BME280;5479;52.046;6.314;2022-08-25T08:25:15;101487.63;;;33.31;35.55
10852;BME280;5479;52.046;6.314;2022-08-25T08:27:44;101496.31;;;33.53;35.21
10852;BME280;5479;52.046;6.314;2022-08-25T08:30:13;101491.44;;;33.55;34.59
10852;BME280;5479;52.046;6.314;2022-08-25T08:32:41;101490.31;;;33.37;34.78
10852;BME280;5479;52.046;6.314;2022-08-25T08:35:09;101486.38;;;34.19;33.67
10852;BME280;5479;52.046;6.314;2022-08-25T08:37:37;101485.66;;;35.08;32.12
10852;BME280;5479;52.046;6.314;2022-08-25T08:40:08;101485.69;;;34.90;32.33
10852;BME280;5479;52.046;6.314;2022-08-25T08:42:51;101475.44;;;35.38;31.88
10852;BME280;5479;52.046;6.314;2022-08-25T08:45:26;101482.97;;;33.31;34.86
10852;BME280;5479;52.046;6.314;2022-08-25T08:48:04;101465.63;;;34.23;33.42
10852;BME280;5479;52.046;6.314;2022-08-25T08:50:40;101458.25;;;33.99;33.39
10852;BME280;5479;52.046;6.314;2022-08-25T08:53:13;101462.81;;;33.69;34.34
10852;BME280;5479;52.046;6.314;2022-08-25T08:55:43;101462.25;;;32.73;35.22
10852;BME280;5479;52.046;6.314;2022-08-25T08:58:16;101465.84;;;32.22;36.03
10852;BME280;5479;52.046;6.314;2022-08-25T09:00:48;101459.03;;;32.38;36.44
10852;BME280;5479;52.046;6.314;2022-08-25T09:03:26;101455.31;;;33.33;34.87
10852;BME280;5479;52.046;6.314;2022-08-25T09:05:59;101452.56;;;33.58;34.14
10852;BME280;5479;52.046;6.314;2022-08-25T09:08:29;101451.94;;;33.06;35.44
10852;BME280;5479;52.046;6.314;2022-08-25T09:11:02;101448.00;;;33.70;33.80
10852;BME280;5479;52.046;6.314;2022-08-25T09:13:45;101438.47;;;34.45;33.56
10852;BME280;5479;52.046;6.314;2022-08-25T09:16:23;101435.97;;;33.21;35.10
10852;BME280;5479;52.046;6.314;2022-08-25T09:22:21;101434.97;;;34.02;33.36
10852;BME280;5479;52.046;6.314;2022-08-25T09:24:56;101437.03;;;34.61;31.81
10852;BME280;5479;52.046;6.314;2022-08-25T09:27:36;101426.22;;;34.29;32.47
10852;BME280;5479;52.046;6.314;2022-08-25T09:30:10;101431.22;;;35.22;31.67
10852;BME280;5479;52.046;6.314;2022-08-25T09:32:43;101432.03;;;36.15;29.54
10852;BME280;5479;52.046;6.314;2022-08-25T09:35:16;101430.16;;;36.04;29.61
10852;BME280;5479;52.046;6.314;2022-08-25T09:37:55;101426.53;;;36.15;29.47
10852;BME280;5479;52.046;6.314;2022-08-25T09:40:24;101417.22;;;35.35;30.27
10852;BME280;5479;52.046;6.314;2022-08-25T09:42:55;101413.13;;;34.73;30.80
10852;BME280;5479;52.046;6.314;2022-08-25T09:45:35;101414.53;;;35.05;30.22
10852;BME280;5479;52.046;6.314;2022-08-25T09:48:20;101411.44;;;35.13;30.45
10852;BME280;5479;52.046;6.314;2022-08-25T09:50:49;101397.50;;;34.55;31.47
10852;BME280;5479;52.046;6.314;2022-08-25T09:53:18;101408.34;;;33.84;33.00
10852;BME280;5479;52.046;6.314;2022-08-25T09:55:53;101399.00;;;34.39;30.96
10852;BME280;5479;52.046;6.314;2022-08-25T09:58:24;101391.94;;;33.59;31.36
10852;BME280;5479;52.046;6.314;2022-08-25T10:01:09;101393.38;;;34.64;30.53
10852;BME280;5479;52.046;6.314;2022-08-25T10:03:53;101386.13;;;34.22;30.75
10852;BME280;5479;52.046;6.314;2022-08-25T10:06:22;101393.22;;;33.75;30.77
10852;BME280;5479;52.046;6.314;2022-08-25T10:08:54;101384.94;;;33.38;31.45
10852;BME280;5479;52.046;6.314;2022-08-25T10:11:39;101390.94;;;33.72;30.99
10852;BME280;5479;52.046;6.314;2022-08-25T10:14:20;101390.13;;;34.08;30.06
10852;BME280;5479;52.046;6.314;2022-08-25T10:17:11;101384.19;;;34.11;29.84
10852;BME280;5479;52.046;6.314;2022-08-25T10:19:38;101390.34;;;34.24;30.17
10852;BME280;5479;52.046;6.314;2022-08-25T10:22:08;101378.84;;;34.87;29.96
10852;BME280;5479;52.046;6.314;2022-08-25T10:24:39;101367.44;;;36.39;26.89
10852;BME280;5479;52.046;6.314;2022-08-25T10:27:17;101368.25;;;36.23;26.61
10852;BME280;5479;52.046;6.314;2022-08-25T10:30:07;101366.47;;;35.31;28.20
10852;BME280;5479;52.046;6.314;2022-08-25T10:32:48;101365.16;;;35.56;27.23
10852;BME280;5479;52.046;6.314;2022-08-25T10:35:23;101359.03;;;36.17;26.48
10852;BME280;5479;52.046;6.314;2022-08-25T10:38:05;101348.22;;;36.56;26.56
10852;BME280;5479;52.046;6.314;2022-08-25T10:40:42;101351.84;;;35.30;27.62
10852;BME280;5479;52.046;6.314;2022-08-25T10:43:21;101356.19;;;34.62;28.13
10852;BME280;5479;52.046;6.314;2022-08-25T10:45:55;101344.19;;;36.07;27.33
10852;BME280;5479;52.046;6.314;2022-08-25T10:48:57;101331.94;;;36.43;27.24
10852;BME280;5479;52.046;6.314;2022-08-25T10:51:48;101346.66;;;35.80;26.66
10852;BME280;5479;52.046;6.314;2022-08-25T10:54:27;101338.16;;;36.50;26.75
10852;BME280;5479;52.046;6.314;2022-08-25T10:57:05;101333.94;;;36.02;26.26
10852;BME280;5479;52.046;6.314;2022-08-25T10:59:47;101331.91;;;35.86;26.72
10852;BME280;5479;52.046;6.314;2022-08-25T11:02:44;101322.19;;;37.95;25.29
10852;BME280;5479;52.046;6.314;2022-08-25T11:05:24;101326.66;;;38.23;23.98
10852;BME280;5479;52.046;6.314;2022-08-25T11:07:57;101336.69;;;36.47;24.00
10852;BME280;5479;52.046;6.314;2022-08-25T11:10:37;101331.47;;;37.67;24.63
10852;BME280;5479;52.046;6.314;2022-08-25T11:13:12;101319.69;;;39.05;23.26
10852;BME280;5479;52.046;6.314;2022-08-25T11:15:50;101319.47;;;40.21;20.46
10852;BME280;5479;52.046;6.314;2022-08-25T11:18:21;101319.28;;;38.87;21.45
10852;BME280;5479;52.046;6.314;2022-08-25T11:20:57;101311.13;;;38.43;22.86
10852;BME280;5479;52.046;6.314;2022-08-25T11:23:31;101310.22;;;37.68;24.57
10852;BME280;5479;52.046;6.314;2022-08-25T11:26:06;101309.56;;;35.59;25.21
10852;BME280;5479;52.046;6.314;2022-08-25T11:28:46;101310.31;;;35.95;25.48
10852;BME280;5479;52.046;6.314;2022-08-25T11:31:16;101300.44;;;37.22;24.46
10852;BME280;5479;52.046;6.314;2022-08-25T11:33:48;101299.28;;;38.53;22.77
10852;BME280;5479;52.046;6.314;2022-08-25T11:36:24;101287.28;;;38.74;22.03
10852;BME280;5479;52.046;6.314;2022-08-25T11:39:03;101299.97;;;38.12;23.40
10852;BME280;5479;52.046;6.314;2022-08-25T11:41:40;101298.81;;;36.54;25.37
10852;BME280;5479;52.046;6.314;2022-08-25T11:44:43;101290.97;;;35.66;26.13
10852;BME280;5479;52.046;6.314;2022-08-25T11:47:27;101294.41;;;35.85;25.44
10852;BME280;5479;52.046;6.314;2022-08-25T11:49:59;101287.19;;;36.24;24.44
10852;BME280;5479;52.046;6.314;2022-08-25T11:52:46;101290.00;;;35.72;25.69
10852;BME280;5479;52.046;6.314;2022-08-25T11:55:18;101283.16;;;36.15;25.57
10852;BME280;5479;52.046;6.314;2022-08-25T11:57:48;101287.69;;;35.93;25.62
10852;BME280;5479;52.046;6.314;2022-08-25T12:00:35;101278.25;;;36.33;25.22
10852;BME280;5479;52.046;6.314;2022-08-25T12:06:16;101264.16;;;35.73;26.00
10852;BME280;5479;52.046;6.314;2022-08-25T12:11:47;101269.00;;;35.43;25.21
10852;BME280;5479;52.046;6.314;2022-08-25T12:14:40;101269.50;;;35.05;25.80
10852;BME280;5479;52.046;6.314;2022-08-25T12:17:20;101259.88;;;35.54;25.20
10852;BME280;5479;52.046;6.314;2022-08-25T12:19:52;101254.59;;;35.93;25.42
10852;BME280;5479;52.046;6.314;2022-08-25T12:22:53;101248.63;;;36.57;25.30
10852;BME280;5479;52.046;6.314;2022-08-25T12:25:42;101257.66;;;37.03;24.78
10852;BME280;5479;52.046;6.314;2022-08-25T12:28:31;101251.16;;;35.86;25.01
10852;BME280;5479;52.046;6.314;2022-08-25T12:31:07;101252.16;;;34.93;25.89
10852;BME280;5479;52.046;6.314;2022-08-25T12:33:47;101249.88;;;35.25;26.13
10852;BME280;5479;52.046;6.314;2022-08-25T12:36:26;101245.25;;;35.65;25.71
10852;BME280;5479;52.046;6.314;2022-08-25T12:39:13;101240.88;;;35.81;25.96
10852;BME280;5479;52.046;6.314;2022-08-25T12:41:53;101248.97;;;35.88;25.36
10852;BME280;5479;52.046;6.314;2022-08-25T12:44:39;101256.13;;;35.09;26.23
10852;BME280;5479;52.046;6.314;2022-08-25T12:47:25;101247.63;;;35.73;25.94
10852;BME280;5479;52.046;6.314;2022-08-25T12:50:27;101243.28;;;35.78;25.42
10852;BME280;5479;52.046;6.314;2022-08-25T12:53:07;101239.88;;;36.15;24.78
10852;BME280;5479;52.046;6.314;2022-08-25T12:55:39;101246.66;;;35.17;26.08
10852;BME280;5479;52.046;6.314;2022-08-25T12:58:10;101240.44;;;35.09;26.22
10852;BME280;5479;52.046;6.314;2022-08-25T13:00:53;101247.97;;;34.91;26.51
10852;BME280;5479;52.046;6.314;2022-08-25T13:03:44;101245.56;;;34.83;26.46
10852;BME280;5479;52.046;6.314;2022-08-25T13:06:25;101243.41;;;34.62;25.89
10852;BME280;5479;52.046;6.314;2022-08-25T13:09:38;101236.81;;;34.63;26.12
10852;BME280;5479;52.046;6.314;2022-08-25T13:12:15;101234.06;;;34.10;25.32
10852;BME280;5479;52.046;6.314;2022-08-25T13:14:52;101235.72;;;34.40;27.16
10852;BME280;5479;52.046;6.314;2022-08-25T13:17:25;101222.66;;;34.06;27.19
10852;BME280;5479;52.046;6.314;2022-08-25T13:20:12;101223.44;;;33.83;26.81
10852;BME280;5479;52.046;6.314;2022-08-25T13:22:43;101216.19;;;33.89;27.61
10852;BME280;5479;52.046;6.314;2022-08-25T13:25:15;101220.09;;;33.81;27.42
10852;BME280;5479;52.046;6.314;2022-08-25T13:27:48;101202.78;;;33.81;27.91
10852;BME280;5479;52.046;6.314;2022-08-25T13:30:30;101213.63;;;33.76;27.36
10852;BME280;5479;52.046;6.314;2022-08-25T13:32:58;101210.41;;;33.79;28.32
10852;BME280;5479;52.046;6.314;2022-08-25T13:35:28;101198.00;;;33.88;27.84
10852;BME280;5479;52.046;6.314;2022-08-25T13:38:11;101197.91;;;34.24;27.26